createdAt,value
2023-05-06T00:01:08.705Z,9.33
2023-05-06T00:03:35.616Z,9.44
2023-05-06T00:06:02.549Z,9.32
2023-05-06T00:08:29.222Z,9.40
2023-05-06T00:10:57.259Z,9.28
2023-05-06T00:13:23.989Z,9.38
2023-05-06T00:15:50.645Z,9.12
2023-05-06T00:18:17.349Z,9.11
2023-05-06T00:20:44.036Z,8.95
2023-05-06T00:23:10.720Z,8.89
2023-05-06T00:25:37.399Z,9.22
2023-05-06T00:28:05.692Z,9.21
2023-05-06T00:30:32.395Z,9.23
2023-05-06T00:32:59.194Z,9.01
2023-05-06T00:35:25.961Z,8.81
2023-05-06T00:37:56.417Z,8.85
2023-05-06T00:40:23.266Z,8.89
2023-05-06T00:42:50.218Z,8.77
2023-05-06T00:45:18.385Z,8.80
2023-05-06T00:47:45.137Z,8.65
2023-05-06T00:50:11.870Z,8.85
2023-05-06T00:52:38.562Z,8.81
2023-05-06T00:55:06.012Z,8.77
2023-05-06T00:57:32.722Z,8.67
2023-05-06T00:59:59.418Z,8.57
2023-05-06T01:02:36.469Z,8.57
2023-05-06T01:05:12.981Z,8.37
2023-05-06T01:07:42.304Z,8.44
2023-05-06T01:10:16.521Z,8.36
2023-05-06T01:12:46.387Z,8.54
2023-05-06T01:15:14.964Z,8.42
2023-05-06T01:17:44.949Z,8.42
2023-05-06T01:20:11.837Z,8.46
2023-05-06T01:22:38.742Z,8.37
2023-05-06T01:25:07.806Z,8.56
2023-05-06T01:27:34.739Z,8.40
2023-05-06T01:30:01.414Z,8.32
2023-05-06T01:32:36.233Z,8.28
2023-05-06T01:35:06.293Z,8.26
2023-05-06T01:37:37.759Z,8.23
2023-05-06T01:40:07.265Z,8.26
2023-05-06T01:42:34.042Z,8.12
2023-05-06T01:45:00.934Z,8.22
2023-05-06T01:47:27.609Z,8.17
2023-05-06T01:49:54.445Z,8.13
2023-05-06T01:52:21.224Z,8.15
2023-05-06T01:54:47.897Z,8.21
2023-05-06T01:57:15.991Z,8.13
2023-05-06T01:59:42.957Z,8.12
2023-05-06T02:02:09.730Z,8.19
2023-05-06T02:04:36.505Z,8.15
2023-05-06T02:07:03.800Z,8.01
2023-05-06T02:09:30.493Z,8.28
2023-05-06T02:11:57.252Z,8.32
2023-05-06T02:14:25.388Z,8.22
2023-05-06T02:16:52.086Z,8.30
2023-05-06T02:19:18.740Z,8.25
2023-05-06T02:21:45.459Z,8.33
2023-05-06T02:24:12.168Z,8.43
2023-05-06T02:26:38.825Z,8.15
2023-05-06T02:29:05.548Z,8.17
2023-05-06T02:31:33.681Z,8.29
2023-05-06T02:34:00.357Z,8.34
2023-05-06T02:36:27.124Z,8.39
2023-05-06T02:38:53.793Z,8.26
2023-05-06T02:41:20.462Z,8.29
2023-05-06T02:43:47.167Z,8.21
2023-05-06T02:46:13.931Z,8.23
2023-05-06T02:48:42.043Z,8.22
2023-05-06T02:51:08.745Z,8.23
2023-05-06T02:53:35.454Z,8.28
2023-05-06T02:56:02.148Z,8.36
2023-05-06T02:58:28.871Z,8.43
2023-05-06T03:00:55.575Z,8.37
2023-05-06T03:03:22.342Z,8.29
2023-05-06T03:05:50.406Z,8.34
2023-05-06T03:08:17.163Z,8.40
2023-05-06T03:10:43.821Z,8.29
2023-05-06T03:13:10.945Z,8.40
2023-05-06T03:15:37.677Z,8.26
2023-05-06T03:18:04.503Z,8.23
2023-05-06T03:20:31.199Z,8.15
2023-05-06T03:22:59.272Z,8.32
2023-05-06T03:25:25.926Z,8.37
2023-05-06T03:27:52.651Z,8.49
2023-05-06T03:30:19.608Z,8.46
2023-05-06T03:32:47.149Z,8.56
2023-05-06T03:35:13.970Z,8.78
2023-05-06T03:37:40.756Z,8.85
2023-05-06T03:40:09.822Z,8.92
2023-05-06T03:42:36.545Z,8.97
2023-05-06T03:45:03.584Z,9.04
2023-05-06T03:47:30.265Z,9.09
2023-05-06T03:49:57.044Z,9.30
2023-05-06T03:52:23.763Z,9.32
2023-05-06T03:54:50.413Z,9.56
2023-05-06T03:57:18.474Z,9.60
2023-05-06T03:59:45.131Z,9.71
2023-05-06T04:02:11.850Z,9.71
2023-05-06T04:04:38.631Z,9.66
2023-05-06T04:07:05.297Z,10.04
2023-05-06T04:09:32.039Z,10.17
2023-05-06T04:11:58.763Z,10.34
2023-05-06T04:14:26.879Z,10.67
2023-05-06T04:16:53.567Z,10.76
2023-05-06T04:19:20.808Z,10.94
2023-05-06T04:21:47.486Z,11.07
2023-05-06T04:24:14.161Z,11.13
2023-05-06T04:26:40.952Z,11.35
2023-05-06T04:29:07.692Z,11.58
2023-05-06T04:31:35.989Z,11.69
2023-05-06T04:34:02.806Z,11.94
2023-05-06T04:36:29.499Z,12.00
2023-05-06T04:38:56.200Z,12.21
2023-05-06T04:41:22.927Z,12.36
2023-05-06T04:43:49.629Z,12.28
2023-05-06T04:46:16.392Z,12.55
2023-05-06T04:48:44.556Z,12.68
2023-05-06T04:51:11.232Z,12.76
2023-05-06T04:53:37.986Z,12.96
2023-05-06T04:56:05.045Z,13.07
2023-05-06T04:58:31.720Z,12.99
2023-05-06T05:00:58.995Z,13.40
2023-05-06T05:03:25.914Z,13.51
2023-05-06T05:05:54.119Z,13.67
2023-05-06T05:08:20.786Z,14.02
2023-05-06T05:10:47.480Z,14.12
2023-05-06T05:13:14.276Z,14.25
2023-05-06T05:15:41.085Z,14.08
2023-05-06T05:18:07.838Z,14.88
2023-05-06T05:20:34.580Z,15.18
2023-05-06T05:23:02.629Z,14.77
2023-05-06T05:25:29.356Z,14.16
2023-05-06T05:27:56.031Z,14.49
2023-05-06T05:30:22.877Z,15.12
2023-05-06T05:32:49.724Z,15.36
2023-05-06T05:35:16.429Z,15.57
2023-05-06T05:37:43.155Z,15.15
2023-05-06T05:40:11.997Z,14.84
2023-05-06T05:42:39.220Z,15.67
2023-05-06T05:45:07.316Z,15.65
2023-05-06T05:47:34.193Z,16.40
2023-05-06T05:50:00.877Z,16.77
2023-05-06T05:52:27.569Z,16.76
2023-05-06T05:54:54.264Z,18.13
2023-05-06T05:57:22.320Z,18.74
2023-05-06T05:59:49.052Z,17.97
2023-05-06T06:02:16.653Z,16.90
2023-05-06T06:04:43.354Z,16.90
2023-05-06T06:07:10.072Z,17.75
2023-05-06T06:09:36.788Z,18.74
2023-05-06T06:12:03.744Z,18.94
2023-05-06T06:14:31.804Z,19.46
2023-05-06T06:16:58.590Z,18.71
2023-05-06T06:19:25.906Z,19.29
2023-05-06T06:21:52.611Z,18.34
2023-05-06T06:24:19.342Z,20.73
2023-05-06T06:26:46.037Z,20.72
2023-05-06T06:29:12.693Z,20.17
2023-05-06T06:31:41.017Z,20.76
2023-05-06T06:34:07.837Z,20.15
2023-05-06T06:36:34.518Z,20.35
2023-05-06T06:39:01.274Z,19.73
2023-05-06T06:41:27.969Z,19.57
2023-05-06T06:43:54.673Z,20.11
2023-05-06T06:46:21.535Z,21.27
2023-05-06T06:48:49.832Z,23.73
2023-05-06T06:51:16.513Z,21.89
2023-05-06T06:53:43.195Z,20.75
2023-05-06T06:56:10.336Z,19.81
2023-05-06T06:58:37.081Z,20.26
2023-05-06T07:01:04.011Z,19.61
2023-05-06T07:03:30.710Z,19.47
2023-05-06T07:05:58.743Z,19.87
2023-05-06T07:08:25.420Z,21.63
2023-05-06T07:10:52.119Z,20.72
2023-05-06T07:13:18.812Z,22.27
2023-05-06T07:15:45.542Z,21.41
2023-05-06T07:18:12.268Z,23.55
2023-05-06T07:20:39.073Z,25.34
2023-05-06T07:23:07.187Z,25.18
2023-05-06T07:25:33.903Z,25.27
2023-05-06T07:28:00.568Z,30.59
2023-05-06T07:30:27.531Z,26.59
2023-05-06T07:32:54.240Z,27.86
2023-05-06T07:35:20.952Z,26.56
2023-05-06T07:37:47.720Z,24.50
2023-05-06T07:40:15.831Z,23.54
2023-05-06T07:42:43.171Z,27.88
2023-05-06T07:45:10.958Z,24.53
2023-05-06T07:47:37.960Z,28.75
2023-05-06T07:50:05.323Z,30.15
2023-05-06T07:52:32.027Z,27.03
2023-05-06T07:54:58.728Z,26.04
2023-05-06T07:57:26.908Z,26.40
2023-05-06T07:59:54.282Z,28.57
2023-05-06T08:02:21.125Z,28.37
2023-05-06T08:04:49.491Z,30.00
2023-05-06T08:07:17.724Z,30.35
2023-05-06T08:09:44.404Z,31.19
2023-05-06T08:12:11.125Z,30.28
2023-05-06T08:14:39.297Z,25.86
2023-05-06T08:17:06.040Z,29.04
2023-05-06T08:19:32.696Z,29.73
2023-05-06T08:21:59.528Z,32.04
2023-05-06T08:24:26.269Z,28.16
2023-05-06T08:26:52.999Z,28.98
2023-05-06T08:29:19.730Z,30.55
2023-05-06T08:31:48.022Z,27.62
2023-05-06T08:34:14.754Z,31.00
2023-05-06T08:36:41.477Z,32.25
2023-05-06T08:39:08.134Z,32.67
2023-05-06T08:41:34.858Z,30.56
2023-05-06T08:44:01.549Z,31.16
2023-05-06T08:46:28.250Z,31.75
2023-05-06T08:48:56.436Z,28.88
2023-05-06T08:51:25.443Z,31.14
2023-05-06T08:53:52.747Z,31.92
2023-05-06T08:56:19.452Z,31.20
2023-05-06T08:58:46.195Z,32.35
2023-05-06T09:01:13.776Z,31.07
2023-05-06T09:03:40.623Z,30.04
2023-05-06T09:06:08.788Z,28.39
2023-05-06T09:08:35.469Z,28.02
2023-05-06T09:11:02.173Z,31.50
2023-05-06T09:13:28.946Z,31.20
2023-05-06T09:15:55.663Z,32.26
2023-05-06T09:18:22.439Z,31.04
2023-05-06T09:20:49.278Z,31.50
2023-05-06T09:23:17.729Z,33.31
2023-05-06T09:25:45.008Z,33.17
2023-05-06T09:28:12.450Z,31.44
2023-05-06T09:30:39.340Z,28.82
2023-05-06T09:33:06.287Z,31.81
2023-05-06T09:35:36.406Z,33.18
2023-05-06T09:38:04.774Z,29.93
2023-05-06T09:40:34.265Z,30.23
2023-05-06T09:43:00.973Z,33.39
2023-05-06T09:45:28.484Z,30.15
2023-05-06T09:47:55.198Z,30.29
2023-05-06T09:50:22.128Z,30.07
2023-05-06T09:52:49.067Z,32.46
2023-05-06T09:55:15.813Z,34.72
2023-05-06T09:57:43.969Z,28.77
2023-05-06T10:00:11.503Z,29.69
2023-05-06T10:02:38.734Z,30.99
2023-05-06T10:05:06.327Z,30.44
2023-05-06T10:07:33.184Z,27.46
2023-05-06T10:09:59.884Z,26.53
2023-05-06T10:12:26.618Z,26.52
2023-05-06T10:14:54.670Z,27.37
2023-05-06T10:17:23.860Z,28.01
2023-05-06T10:19:50.752Z,27.96
2023-05-06T10:22:22.534Z,27.69
2023-05-06T10:24:52.043Z,25.59
2023-05-06T10:27:18.825Z,27.30
2023-05-06T10:29:45.529Z,28.15
2023-05-06T10:32:13.685Z,27.92
2023-05-06T10:34:42.726Z,27.43
2023-05-06T10:37:09.400Z,26.59
2023-05-06T10:39:36.146Z,26.42
2023-05-06T10:42:02.951Z,28.98
2023-05-06T10:44:58.383Z,30.03
2023-05-06T10:47:26.549Z,30.69
2023-05-06T10:50:21.389Z,32.56
2023-05-06T10:52:50.490Z,33.28
2023-05-06T10:55:27.706Z,32.63
2023-05-06T10:57:54.885Z,35.99
2023-05-06T11:00:21.935Z,28.59
2023-05-06T11:02:55.788Z,27.81
2023-05-06T11:05:22.633Z,29.12
2023-05-06T11:07:50.050Z,27.50
2023-05-06T11:10:16.729Z,26.38
2023-05-06T11:12:47.537Z,26.13
2023-05-06T11:15:24.447Z,29.23
2023-05-06T11:17:52.823Z,30.06
2023-05-06T11:20:20.657Z,30.23
2023-05-06T11:22:47.439Z,31.52
2023-05-06T11:25:14.134Z,31.09
2023-05-06T11:27:43.233Z,32.15
2023-05-06T11:30:13.812Z,32.98
2023-05-06T11:32:41.109Z,32.68
2023-05-06T11:35:09.716Z,33.18
2023-05-06T11:37:36.457Z,32.46
2023-05-06T11:40:03.436Z,33.65
2023-05-06T11:42:30.120Z,29.93
2023-05-06T11:45:00.406Z,31.14
2023-05-06T11:47:27.105Z,33.28
2023-05-06T11:49:54.573Z,31.98
2023-05-06T11:52:22.675Z,32.61
2023-05-06T11:54:51.065Z,29.49
2023-05-06T11:57:19.305Z,30.55
2023-05-06T11:59:46.089Z,32.05
2023-05-06T12:02:13.452Z,30.11
2023-05-06T12:04:41.037Z,29.23
2023-05-06T12:07:08.555Z,29.81
2023-05-06T12:09:36.844Z,29.87
2023-05-06T12:12:03.915Z,29.40
2023-05-06T12:14:30.649Z,29.32
2023-05-06T12:16:57.348Z,28.74
2023-05-06T12:19:24.273Z,29.31
2023-05-06T12:21:51.067Z,28.05
2023-05-06T12:24:26.965Z,28.64
2023-05-06T12:26:55.092Z,28.06
2023-05-06T12:29:21.903Z,28.49
2023-05-06T12:31:48.686Z,28.37
2023-05-06T12:34:15.613Z,28.37
2023-05-06T12:36:42.981Z,28.36
2023-05-06T12:39:09.678Z,28.01
2023-05-06T12:41:38.284Z,28.15
2023-05-06T12:44:30.899Z,27.68
2023-05-06T12:46:57.615Z,27.98
2023-05-06T12:49:24.283Z,28.56
2023-05-06T12:52:05.967Z,28.64
2023-05-06T12:54:32.675Z,28.68
2023-05-06T12:56:59.352Z,28.64
2023-05-06T12:59:27.505Z,27.72
2023-05-06T13:01:54.207Z,28.04
2023-05-06T13:04:21.192Z,28.44
2023-05-06T13:06:47.945Z,28.44
2023-05-06T13:09:15.450Z,28.04
2023-05-06T13:11:42.318Z,28.32
2023-05-06T13:14:09.172Z,28.81
2023-05-06T13:16:37.320Z,29.14
2023-05-06T13:19:04.222Z,29.50
2023-05-06T13:21:30.935Z,28.90
2023-05-06T13:23:57.645Z,29.22
2023-05-06T13:26:24.373Z,29.88
2023-05-06T13:28:51.161Z,29.43
2023-05-06T13:31:17.862Z,28.73
2023-05-06T13:33:45.959Z,28.42
2023-05-06T13:36:12.675Z,28.19
2023-05-06T13:38:39.395Z,28.02
2023-05-06T13:41:06.899Z,27.43
2023-05-06T13:43:33.643Z,27.41
2023-05-06T13:46:00.331Z,27.40
2023-05-06T13:48:27.027Z,27.22
2023-05-06T13:50:55.192Z,27.29
2023-05-06T13:53:21.924Z,27.31
2023-05-06T13:55:48.647Z,27.14
2023-05-06T13:58:16.676Z,27.37
2023-05-06T14:00:43.430Z,27.37
2023-05-06T14:03:10.104Z,26.05
2023-05-06T14:05:36.812Z,26.28
2023-05-06T14:08:05.238Z,26.44
2023-05-06T14:10:31.949Z,26.71
2023-05-06T14:12:58.842Z,26.73
2023-05-06T14:15:25.538Z,27.11
2023-05-06T14:17:52.303Z,27.02
2023-05-06T14:20:19.184Z,26.38
2023-05-06T14:22:45.916Z,25.89
2023-05-06T14:25:14.523Z,25.86
2023-05-06T14:27:41.464Z,25.52
2023-05-06T14:30:09.836Z,25.24
2023-05-06T14:32:36.904Z,24.49
2023-05-06T14:35:04.004Z,23.77
2023-05-06T14:37:30.728Z,23.07
2023-05-06T14:39:57.419Z,23.10
2023-05-06T14:42:25.563Z,23.00
2023-05-06T14:44:52.244Z,22.92
2023-05-06T14:47:19.000Z,22.16
2023-05-06T14:49:45.774Z,22.20
2023-05-06T14:52:12.537Z,21.89
2023-05-06T14:54:39.214Z,21.97
2023-05-06T14:57:05.973Z,22.18
2023-05-06T14:59:34.064Z,21.86
2023-05-06T15:02:00.831Z,21.80
2023-05-06T15:04:27.570Z,21.97
2023-05-06T15:06:54.269Z,21.96
2023-05-06T15:09:20.951Z,22.13
2023-05-06T15:11:47.839Z,22.10
2023-05-06T15:14:14.534Z,21.96
2023-05-06T15:16:42.695Z,22.30
2023-05-06T15:19:09.443Z,22.11
2023-05-06T15:21:36.144Z,22.16
2023-05-06T15:24:03.016Z,22.13
2023-05-06T15:26:29.805Z,22.14
2023-05-06T15:28:56.501Z,22.01
2023-05-06T15:31:23.324Z,21.63
2023-05-06T15:33:51.536Z,21.85
2023-05-06T15:36:18.246Z,21.53
2023-05-06T15:39:00.716Z,21.08
2023-05-06T15:41:28.710Z,20.55
2023-05-06T15:43:55.906Z,20.45
2023-05-06T15:46:22.667Z,20.12
2023-05-06T15:49:00.155Z,20.14
2023-05-06T15:51:37.588Z,20.15
2023-05-06T15:54:04.544Z,20.21
2023-05-06T15:59:00.785Z,20.17
2023-05-06T16:01:57.394Z,20.25
2023-05-06T16:04:15.842Z,20.40
2023-05-06T16:06:42.671Z,20.24
2023-05-06T16:09:09.357Z,20.17
2023-05-06T16:11:36.099Z,20.49
2023-05-06T16:14:03.516Z,20.49
2023-05-06T16:16:30.277Z,20.55
2023-05-06T16:18:57.076Z,20.84
2023-05-06T16:21:25.249Z,20.94
2023-05-06T16:23:51.960Z,21.72
2023-05-06T16:26:18.640Z,22.13
2023-05-06T16:28:45.413Z,21.90
2023-05-06T16:31:12.160Z,21.75
2023-05-06T16:33:39.295Z,21.93
2023-05-06T16:36:07.680Z,21.42
2023-05-06T16:38:36.152Z,21.55
2023-05-06T16:41:02.895Z,21.27
2023-05-06T16:43:29.573Z,21.21
2023-05-06T16:45:56.297Z,21.04
2023-05-06T16:48:23.230Z,20.79
2023-05-06T16:50:49.977Z,20.45
2023-05-06T16:53:16.663Z,20.29
2023-05-06T16:55:47.769Z,20.12
2023-05-06T16:58:14.531Z,20.07
2023-05-06T17:00:41.843Z,19.95
2023-05-06T17:03:08.778Z,19.87
2023-05-06T17:05:35.537Z,19.73
2023-05-06T17:08:02.248Z,19.67
2023-05-06T17:10:29.054Z,19.63
2023-05-06T17:12:57.183Z,19.43
2023-05-06T17:15:23.967Z,19.49
2023-05-06T17:20:17.649Z,19.42
2023-05-06T17:22:44.414Z,19.36
2023-05-06T17:25:11.960Z,19.33
2023-05-06T17:27:38.686Z,19.26
2023-05-06T17:30:08.191Z,19.33
2023-05-06T17:32:34.988Z,19.30
2023-05-06T17:35:01.688Z,19.05
2023-05-06T17:37:28.452Z,18.84
2023-05-06T17:39:55.481Z,18.55
2023-05-06T17:42:22.317Z,18.48
2023-05-06T17:44:49.054Z,18.22
2023-05-06T17:47:17.195Z,17.97
2023-05-06T17:49:43.915Z,17.81
2023-05-06T17:52:10.603Z,17.65
2023-05-06T17:54:37.928Z,17.48
2023-05-06T17:57:04.680Z,17.24
2023-05-06T17:59:31.358Z,17.03
2023-05-06T18:01:58.259Z,16.82
2023-05-06T18:04:26.391Z,16.65
2023-05-06T18:06:53.100Z,16.63
2023-05-06T18:09:19.824Z,16.87
2023-05-06T18:11:46.538Z,16.94
2023-05-06T18:14:13.245Z,16.77
2023-05-06T18:16:40.098Z,16.62
2023-05-06T18:19:06.830Z,16.41
2023-05-06T18:21:34.882Z,16.24
2023-05-06T18:24:10.752Z,16.08
2023-05-06T18:26:45.406Z,16.14
2023-05-06T18:29:12.766Z,16.14
2023-05-06T18:31:39.573Z,16.24
2023-05-06T18:34:06.389Z,16.34
2023-05-06T18:36:34.607Z,16.35
2023-05-06T18:39:01.292Z,16.71
2023-05-06T18:41:27.999Z,16.52
2023-05-06T18:43:54.866Z,16.41
2023-05-06T18:46:21.578Z,16.28
2023-05-06T18:48:48.470Z,16.56
2023-05-06T18:51:15.825Z,16.35
2023-05-06T18:53:43.984Z,16.35
2023-05-06T18:56:10.724Z,16.07
2023-05-06T18:58:38.229Z,15.91
2023-05-06T19:01:05.592Z,15.71
2023-05-06T19:03:32.694Z,15.50
2023-05-06T19:05:59.470Z,15.38
2023-05-06T19:08:26.205Z,15.31
2023-05-06T19:10:54.493Z,15.34
2023-05-06T19:13:21.430Z,15.28
2023-05-06T19:15:48.159Z,15.21
2023-05-06T19:18:14.921Z,15.08
2023-05-06T19:20:41.692Z,15.14
2023-05-06T19:23:08.760Z,15.07
2023-05-06T19:25:36.156Z,15.40
2023-05-06T19:28:04.475Z,15.39
2023-05-06T19:30:31.920Z,15.29
2023-05-06T19:32:58.665Z,15.26
2023-05-06T19:35:25.414Z,15.53
2023-05-06T19:37:52.127Z,15.62
2023-05-06T19:40:19.076Z,15.69
2023-05-06T19:42:46.070Z,15.83
2023-05-06T19:45:16.792Z,15.89
2023-05-06T19:47:45.729Z,15.98
2023-05-06T19:50:12.940Z,16.01
2023-05-06T19:52:39.987Z,15.94
2023-05-06T19:55:07.579Z,16.03
2023-05-06T19:57:34.263Z,15.97
2023-05-06T20:00:00.953Z,16.04
2023-05-06T20:02:29.100Z,16.13
2023-05-06T20:04:55.849Z,16.13
2023-05-06T20:07:23.318Z,16.29
2023-05-06T20:09:50.082Z,16.21
2023-05-06T20:12:16.835Z,16.25
2023-05-06T20:14:43.463Z,16.32
2023-05-06T20:17:10.165Z,16.36
2023-05-06T20:19:38.214Z,16.48
2023-05-06T20:22:05.037Z,16.42
2023-05-06T20:24:31.701Z,16.29
2023-05-06T20:26:58.462Z,16.25
2023-05-06T20:29:25.246Z,16.58
2023-05-06T20:31:51.949Z,16.82
2023-05-06T20:34:18.695Z,16.80
2023-05-06T20:36:46.797Z,16.59
2023-05-06T20:39:13.463Z,16.93
2023-05-06T20:41:40.106Z,16.71
2023-05-06T20:44:06.783Z,16.40
2023-05-06T20:46:33.500Z,16.34
2023-05-06T20:49:00.227Z,16.20
2023-05-06T20:51:26.891Z,16.17
2023-05-06T20:53:54.938Z,16.47
2023-05-06T20:56:22.326Z,16.62
2023-05-06T20:58:49.012Z,16.36
2023-05-06T21:01:15.903Z,16.44
2023-05-06T21:03:42.721Z,16.36
2023-05-06T21:06:09.563Z,16.41
2023-05-06T21:08:36.262Z,16.52
2023-05-06T21:11:04.358Z,16.32
2023-05-06T21:13:31.052Z,16.07
2023-05-06T21:15:57.753Z,15.94
2023-05-06T21:18:24.547Z,15.66
2023-05-06T21:20:51.332Z,15.56
2023-05-06T21:23:18.004Z,15.50
2023-05-06T21:25:44.743Z,15.50
2023-05-06T21:28:12.773Z,15.39
2023-05-06T21:30:39.452Z,15.45
2023-05-06T21:33:06.315Z,15.42
2023-05-06T21:35:33.026Z,15.36
2023-05-06T21:37:59.907Z,15.29
2023-05-06T21:40:26.665Z,15.22
2023-05-06T21:42:53.298Z,15.18
2023-05-06T21:45:21.416Z,15.09
2023-05-06T21:47:48.102Z,15.19
2023-05-06T21:50:15.014Z,15.14
2023-05-06T21:52:41.717Z,15.26
2023-05-06T21:55:08.893Z,15.26
2023-05-06T21:57:35.782Z,15.38
2023-05-06T22:00:02.897Z,15.56
2023-05-06T22:02:31.150Z,15.79
2023-05-06T22:04:57.801Z,15.91
2023-05-06T22:07:24.474Z,15.82
2023-05-06T22:09:51.261Z,15.73
2023-05-06T22:12:17.914Z,15.77
2023-05-06T22:14:44.571Z,15.71
2023-05-06T22:17:11.259Z,15.57
2023-05-06T22:19:39.569Z,15.53
2023-05-06T22:22:06.724Z,15.69
2023-05-06T22:24:33.439Z,15.74
2023-05-06T22:27:00.173Z,15.96
2023-05-06T22:29:26.854Z,15.52
2023-05-06T22:31:53.594Z,15.56
2023-05-06T22:34:20.493Z,15.59
2023-05-06T22:36:48.560Z,15.59
2023-05-06T22:39:15.278Z,15.69
2023-05-06T22:41:41.971Z,15.50
2023-05-06T22:44:08.664Z,15.39
2023-05-06T22:46:35.391Z,15.34
2023-05-06T22:49:02.111Z,15.19
2023-05-06T22:51:28.782Z,15.36
2023-05-06T22:53:56.865Z,15.65
2023-05-06T22:56:23.612Z,15.80
2023-05-06T22:58:50.307Z,15.36
2023-05-06T23:01:17.017Z,15.22
2023-05-06T23:03:43.750Z,15.12
2023-05-06T23:06:10.446Z,14.97
2023-05-06T23:08:37.195Z,15.12
2023-05-06T23:11:05.362Z,14.88
2023-05-06T23:13:32.054Z,14.83
2023-05-06T23:15:58.754Z,14.92
2023-05-06T23:18:25.429Z,14.88
2023-05-06T23:20:52.250Z,14.91
2023-05-06T23:23:19.019Z,14.78
2023-05-06T23:25:45.667Z,14.73
2023-05-06T23:28:13.751Z,14.57
2023-05-06T23:30:40.435Z,14.46
2023-05-06T23:33:07.239Z,14.33
2023-05-06T23:35:33.927Z,14.33
2023-05-06T23:38:00.693Z,14.18
2023-05-06T23:40:27.406Z,14.04
2023-05-06T23:42:54.092Z,14.11
2023-05-06T23:45:22.164Z,14.04
2023-05-06T23:47:48.955Z,13.77
2023-05-06T23:50:15.785Z,13.67
2023-05-06T23:52:42.511Z,13.48
2023-05-06T23:55:09.855Z,13.61
2023-05-06T23:57:36.684Z,13.77
